Time,TemperatureF,DewpointF,PressureIn,WindDirection,WindDirectionDegrees,WindSpeedMPH,WindSpeedGustMPH,Humidity,HourlyPrecipIn,Conditions,Clouds,dailyrainin,SoftwareType,DateUTC
2013-02-27 00:04:00,63.3,60.6,29.72,SSW,202,0.0,-999.0,91,-99.99,,,0.00,Acu-Link.com,2013-02-27 05:04:00,
2013-02-27 00:20:00,63.1,60.4,29.73,SSW,202,1.7,-999.0,91,-99.99,,,0.00,Acu-Link.com,2013-02-27 05:20:00,
2013-02-27 00:35:00,62.4,59.7,29.73,West,270,0.0,-999.0,91,-99.99,,,0.00,Acu-Link.com,2013-02-27 05:35:00,
2013-02-27 00:50:00,62.1,59.4,29.74,West,270,0.0,-999.0,91,-99.99,,,0.00,Acu-Link.com,2013-02-27 05:50:00,
2013-02-27 01:06:00,61.5,58.8,29.74,West,270,0.0,-999.0,91,-99.99,,,0.00,Acu-Link.com,2013-02-27 06:06:00,
2013-02-27 01:21:00,61.7,59.0,29.74,SSE,157,2.2,-999.0,91,-99.99,,,0.00,Acu-Link.com,2013-02-27 06:21:00,
2013-02-27 01:36:00,61.3,59.0,29.74,SSW,202,0.0,-999.0,92,-99.99,,,0.00,Acu-Link.com,2013-02-27 06:36:00,
2013-02-27 01:51:00,61.0,58.7,29.74,NNE,22,0.0,-999.0,92,-99.99,,,0.00,Acu-Link.com,2013-02-27 06:51:00,
2013-02-27 02:07:00,61.0,58.7,29.73,ESE,112,0.0,-999.0,92,-99.99,,,0.00,Acu-Link.com,2013-02-27 07:07:00,
2013-02-27 02:22:00,61.0,58.7,29.74,West,270,0.0,-999.0,92,-99.99,,,0.00,Acu-Link.com,2013-02-27 07:22:00,
2013-02-27 02:37:00,61.0,58.7,29.73,West,270,0.0,-999.0,92,-99.99,,,0.00,Acu-Link.com,2013-02-27 07:37:00,
2013-02-27 02:53:00,61.3,59.0,29.72,West,270,1.7,-999.0,92,-99.99,,,0.00,Acu-Link.com,2013-02-27 07:53:00,
2013-02-27 03:08:00,61.7,59.3,29.73,West,270,0.0,-999.0,92,-99.99,,,0.00,Acu-Link.com,2013-02-27 08:08:00,
2013-02-27 03:24:00,62.1,59.7,29.72,WSW,247,0.0,-999.0,92,-99.99,,,0.00,Acu-Link.com,2013-02-27 08:24:00,
2013-02-27 03:39:00,62.1,59.7,29.72,SSW,202,0.0,-999.0,92,-99.99,,,0.00,Acu-Link.com,2013-02-27 08:39:00,
2013-02-27 03:54:00,62.1,60.0,29.73,SSW,202,0.0,-999.0,93,-99.99,,,0.00,Acu-Link.com,2013-02-27 08:54:00,
2013-02-27 04:17:00,62.2,60.1,29.73,SSW,202,1.1,-999.0,93,-99.99,,,0.00,Acu-Link.com,2013-02-27 09:17:00,
2013-02-27 04:33:00,62.2,60.1,29.74,SSW,202,0.0,-999.0,93,-99.99,,,0.00,Acu-Link.com,2013-02-27 09:33:00,
2013-02-27 04:48:00,62.2,60.1,29.74,SSW,202,0.0,-999.0,93,-99.99,,,0.00,Acu-Link.com,2013-02-27 09:48:00,
2013-02-27 05:03:00,61.9,59.9,29.74,SSW,202,0.0,-999.0,93,-99.99,,,0.00,Acu-Link.com,2013-02-27 10:03:00,
2013-02-27 05:18:00,61.3,59.3,29.75,SSW,202,0.0,-999.0,93,-99.99,,,0.00,Acu-Link.com,2013-02-27 10:18:00,
2013-02-27 05:34:00,61.2,59.2,29.75,SSW,202,0.0,-999.0,93,-99.99,,,0.00,Acu-Link.com,2013-02-27 10:34:00,
2013-02-27 05:49:00,61.3,59.3,29.75,SSW,202,0.0,-999.0,93,-99.99,,,0.00,Acu-Link.com,2013-02-27 10:49:00,
2013-02-27 06:04:00,61.5,59.5,29.75,WSW,247,1.7,-999.0,93,-99.99,,,0.00,Acu-Link.com,2013-02-27 11:04:00,
2013-02-27 06:20:00,61.5,59.5,29.75,South,180,1.7,-999.0,93,-99.99,,,0.00,Acu-Link.com,2013-02-27 11:20:00,
2013-02-27 06:35:00,61.2,59.2,29.75,SSE,157,1.7,-999.0,93,-99.99,,,0.00,Acu-Link.com,2013-02-27 11:35:00,
2013-02-27 06:50:00,60.8,58.8,29.76,West,270,0.0,-999.0,93,-99.99,,,0.00,Acu-Link.com,2013-02-27 11:50:00,
2013-02-27 07:06:00,60.8,58.8,29.76,SSW,202,0.0,-999.0,93,-99.99,,,0.00,Acu-Link.com,2013-02-27 12:06:00,
2013-02-27 07:21:00,61.5,59.5,29.77,SW,225,1.7,-999.0,93,-99.99,,,0.00,Acu-Link.com,2013-02-27 12:21:00,
2013-02-27 07:36:00,62.6,60.5,29.77,SSE,157,1.1,-999.0,93,-99.99,,,0.00,Acu-Link.com,2013-02-27 12:36:00,
2013-02-27 07:51:00,64.6,61.0,29.78,SW,225,0.0,-999.0,88,-99.99,,,0.00,Acu-Link.com,2013-02-27 12:51:00,
2013-02-27 08:07:00,67.1,62.1,29.79,WSW,247,2.2,-999.0,84,-99.99,,,0.00,Acu-Link.com,2013-02-27 13:07:00,
2013-02-27 08:22:00,69.6,61.7,29.79,West,270,2.7,-999.0,76,-99.99,,,0.00,Acu-Link.com,2013-02-27 13:22:00,
2013-02-27 08:37:00,69.4,59.6,29.80,West,270,2.7,-999.0,71,-99.99,,,0.01,Acu-Link.com,2013-02-27 13:37:00,
2013-02-27 08:52:00,69.4,58.8,29.81,West,270,2.7,-999.0,69,-99.99,,,0.01,Acu-Link.com,2013-02-27 13:52:00,
2013-02-27 09:08:00,67.5,57.4,29.82,WNW,292,6.3,-999.0,70,-99.99,,,0.01,Acu-Link.com,2013-02-27 14:08:00,
2013-02-27 09:23:00,68.5,58.3,29.82,WSW,247,4.2,-999.0,70,-99.99,,,0.01,Acu-Link.com,2013-02-27 14:23:00,
2013-02-27 09:38:00,66.6,56.1,29.82,North,0,3.7,-999.0,69,-99.99,,,0.01,Acu-Link.com,2013-02-27 14:38:00,
2013-02-27 09:54:00,66.4,56.3,29.82,NNE,22,3.2,-999.0,70,-99.99,,,0.01,Acu-Link.com,2013-02-27 14:54:00,
2013-02-27 10:09:00,66.7,56.2,29.82,SW,225,3.2,-999.0,69,-99.99,,,0.01,Acu-Link.com,2013-02-27 15:09:00,
2013-02-27 10:24:00,67.1,56.6,29.82,WNW,292,7.3,-999.0,69,-99.99,,,0.01,Acu-Link.com,2013-02-27 15:24:00,
2013-02-27 10:39:00,66.6,56.1,29.83,WNW,292,4.7,-999.0,69,-99.99,,,0.01,Acu-Link.com,2013-02-27 15:39:00,
2013-02-27 10:54:00,67.5,55.7,29.83,WSW,247,3.2,-999.0,66,-99.99,,,0.01,Acu-Link.com,2013-02-27 15:54:00,
2013-02-27 11:09:00,70.0,56.8,29.82,SSW,202,3.7,-999.0,63,-99.99,,,0.01,Acu-Link.com,2013-02-27 16:09:00,
2013-02-27 11:24:00,69.6,55.5,29.82,WNW,292,2.7,-999.0,61,-99.99,,,0.01,Acu-Link.com,2013-02-27 16:24:00,
2013-02-27 11:39:00,70.0,56.4,29.82,SW,225,4.7,-999.0,62,-99.99,,,0.01,Acu-Link.com,2013-02-27 16:39:00,
2013-02-27 11:55:00,70.3,56.2,29.81,NNW,337,7.8,-999.0,61,-99.99,,,0.01,Acu-Link.com,2013-02-27 16:55:00,
2013-02-27 12:10:00,70.7,56.1,29.80,NW,315,1.7,-999.0,60,-99.99,,,0.01,Acu-Link.com,2013-02-27 17:10:00,
2013-02-27 12:25:00,70.9,56.8,29.80,WNW,292,5.8,-999.0,61,-99.99,,,0.01,Acu-Link.com,2013-02-27 17:25:00,
2013-02-27 12:41:00,72.0,56.9,29.79,SE,135,2.7,-999.0,59,-99.99,,,0.01,Acu-Link.com,2013-02-27 17:41:00,
2013-02-27 12:56:00,73.0,56.4,29.79,ESE,112,1.7,-999.0,56,-99.99,,,0.01,Acu-Link.com,2013-02-27 17:56:00,
2013-02-27 13:11:00,73.2,56.5,29.79,SW,225,3.7,-999.0,56,-99.99,,,0.01,Acu-Link.com,2013-02-27 18:11:00,
2013-02-27 13:27:00,73.6,56.9,29.78,SE,135,1.7,-999.0,56,-99.99,,,0.01,Acu-Link.com,2013-02-27 18:27:00,
2013-02-27 13:42:00,74.8,57.0,29.77,SSW,202,3.2,-999.0,54,-99.99,,,0.01,Acu-Link.com,2013-02-27 18:42:00,
2013-02-27 13:57:00,74.5,56.2,29.77,SSW,202,3.7,-999.0,53,-99.99,,,0.01,Acu-Link.com,2013-02-27 18:57:00,
2013-02-27 14:12:00,73.9,55.2,29.76,SSW,202,2.7,-999.0,52,-99.99,,,0.01,Acu-Link.com,2013-02-27 19:12:00,
2013-02-27 14:28:00,74.7,56.4,29.75,WSW,247,6.3,-999.0,53,-99.99,,,0.01,Acu-Link.com,2013-02-27 19:28:00,
2013-02-27 14:43:00,75.4,55.5,29.74,SW,225,2.7,-999.0,50,-99.99,,,0.01,Acu-Link.com,2013-02-27 19:43:00,
2013-02-27 14:58:00,75.0,55.6,29.73,West,270,2.7,-999.0,51,-99.99,,,0.01,Acu-Link.com,2013-02-27 19:58:00,
2013-02-27 15:13:00,76.6,57.1,29.73,SW,225,3.2,-999.0,51,-99.99,,,0.01,Acu-Link.com,2013-02-27 20:13:00,
2013-02-27 15:29:00,76.3,56.3,29.74,NW,315,3.2,-999.0,50,-99.99,,,0.01,Acu-Link.com,2013-02-27 20:29:00,
2013-02-27 15:44:00,76.5,55.3,29.73,WNW,292,2.7,-999.0,48,-99.99,,,0.01,Acu-Link.com,2013-02-27 20:44:00,
2013-02-27 16:00:00,76.5,55.9,29.74,South,180,3.2,-999.0,49,-99.99,,,0.01,Acu-Link.com,2013-02-27 21:00:00,
2013-02-27 16:15:00,75.7,54.0,29.74,West,270,5.3,-999.0,47,-99.99,,,0.01,Acu-Link.com,2013-02-27 21:15:00,
2013-02-27 16:30:00,75.9,54.2,29.73,West,270,1.7,-999.0,47,-99.99,,,0.01,Acu-Link.com,2013-02-27 21:30:00,
2013-02-27 16:45:00,75.2,54.7,29.74,SW,225,3.7,-999.0,49,-99.99,,,0.01,Acu-Link.com,2013-02-27 21:45:00,
2013-02-27 17:01:00,74.8,54.3,29.75,SSW,202,2.7,-999.0,49,-99.99,,,0.01,Acu-Link.com,2013-02-27 22:01:00,
2013-02-27 17:16:00,74.5,54.6,29.75,WSW,247,3.2,-999.0,50,-99.99,,,0.01,Acu-Link.com,2013-02-27 22:16:00,
2013-02-27 17:31:00,73.4,55.2,29.75,SW,225,3.7,-999.0,53,-99.99,,,0.01,Acu-Link.com,2013-02-27 22:31:00,
2013-02-27 17:46:00,72.1,54.5,29.75,South,180,3.7,-999.0,54,-99.99,,,0.01,Acu-Link.com,2013-02-27 22:46:00,
2013-02-27 18:01:00,70.7,54.2,29.76,SSW,202,3.2,-999.0,56,-99.99,,,0.01,Acu-Link.com,2013-02-27 23:01:00,
2013-02-27 18:16:00,69.6,54.2,29.76,SW,225,2.7,-999.0,58,-99.99,,,0.01,Acu-Link.com,2013-02-27 23:16:00,
2013-02-27 18:32:00,68.5,53.6,29.77,SSW,202,1.7,-999.0,59,-99.99,,,0.01,Acu-Link.com,2013-02-27 23:32:00,
2013-02-27 18:47:00,67.5,53.1,29.77,SW,225,0.0,-999.0,60,-99.99,,,0.01,Acu-Link.com,2013-02-27 23:47:00,
2013-02-27 19:02:00,66.6,52.7,29.77,SW,225,1.7,-999.0,61,-99.99,,,0.01,Acu-Link.com,2013-02-28 00:02:00,
2013-02-27 19:18:00,65.8,52.4,29.78,South,180,2.2,-999.0,62,-99.99,,,0.01,Acu-Link.com,2013-02-28 00:18:00,
2013-02-27 19:33:00,65.1,52.2,29.79,SW,225,3.2,-999.0,63,-99.99,,,0.01,Acu-Link.com,2013-02-28 00:33:00,
2013-02-27 19:48:00,64.4,51.5,29.79,SSW,202,4.2,-999.0,63,-99.99,,,0.01,Acu-Link.com,2013-02-28 00:48:00,
2013-02-27 20:04:00,63.3,50.9,29.79,South,180,2.2,-999.0,64,-99.99,,,0.01,Acu-Link.com,2013-02-28 01:04:00,
2013-02-27 20:19:00,62.6,50.7,29.79,SW,225,2.2,-999.0,65,-99.99,,,0.01,Acu-Link.com,2013-02-28 01:19:00,
2013-02-27 20:34:00,61.9,50.4,29.80,WSW,247,2.7,-999.0,66,-99.99,,,0.01,Acu-Link.com,2013-02-28 01:34:00,
2013-02-27 20:49:00,61.3,50.2,29.80,SW,225,2.7,-999.0,67,-99.99,,,0.01,Acu-Link.com,2013-02-28 01:49:00,
2013-02-27 21:05:00,60.6,50.0,29.80,West,270,1.7,-999.0,68,-99.99,,,0.01,Acu-Link.com,2013-02-28 02:05:00,
2013-02-27 21:20:00,59.9,49.3,29.81,North,0,1.1,-999.0,68,-99.99,,,0.01,Acu-Link.com,2013-02-28 02:20:00,
2013-02-27 21:36:00,59.0,48.5,29.82,West,270,2.7,-999.0,68,-99.99,,,0.01,Acu-Link.com,2013-02-28 02:36:00,
2013-02-27 21:51:00,58.3,48.2,29.82,WSW,247,3.2,-999.0,69,-99.99,,,0.01,Acu-Link.com,2013-02-28 02:51:00,
2013-02-27 22:06:00,57.9,47.8,29.82,West,270,2.7,-999.0,69,-99.99,,,0.01,Acu-Link.com,2013-02-28 03:06:00,
2013-02-27 22:21:00,57.9,48.2,29.82,SW,225,2.2,-999.0,70,-99.99,,,0.01,Acu-Link.com,2013-02-28 03:21:00,
2013-02-27 22:37:00,57.7,48.0,29.82,SW,225,3.2,-999.0,70,-99.99,,,0.01,Acu-Link.com,2013-02-28 03:37:00,
2013-02-27 22:52:00,57.4,48.1,29.82,West,270,2.7,-999.0,71,-99.99,,,0.01,Acu-Link.com,2013-02-28 03:52:00,
2013-02-27 23:07:00,56.7,47.4,29.82,SW,225,2.7,-999.0,71,-99.99,,,0.01,Acu-Link.com,2013-02-28 04:07:00,
2013-02-27 23:22:00,56.5,47.9,29.82,SE,135,2.7,-999.0,73,-99.99,,,0.01,Acu-Link.com,2013-02-28 04:22:00,
2013-02-27 23:37:00,56.3,47.8,29.82,ESE,112,1.7,-999.0,73,-99.99,,,0.01,Acu-Link.com,2013-02-28 04:37:00,
2013-02-27 23:53:00,56.1,47.9,29.82,SW,225,1.7,-999.0,74,-99.99,,,0.01,Acu-Link.com,2013-02-28 04:53:00,